Tahoua, Niger
Current Conditions -  °F | °C
As of 1:00 AM on Thursday 23 Oct 2014 (Local Time) from DRRN Reporting Station
Clear Clear  
Wind Chill: 82°   Ceiling: Unl
Heat Index: 82°   Visibility: 5mi
Dew Point: 46°   Wind: 6mph
Humidity: 28%   Direction: 170°S
Pressure: 29.88"   Gusts: NA
Location:  14.9°N, 5.26°E
Report Text: DRRN 230000Z 17005KT 8000 NSC 28/08 Q1012 NOSIG
Loading
Personal Weather Stations






























Interactive Weather Map
Tropical Storm Tracking
New forecast layout! Learn more

10-Day Weather Forecast

Advertisements
Track Severe Weather on mobile